Time;durP1;ratioP1;P1;durP2;ratioP2;P2;SDS_P1;SDS_P2;PMS_P1;PMS_P2;Temp;Humidity;BMP_temperature;BMP_pressure;BME280_temperature;BME280_humidity;BME280_pressure;Samples;Min_cycle;Max_cycle;Signal;HPM_P1;HPM_P2
2023/07/31 00:00:21;;;;;;;2.60;1.10;;;;;;;15.36;100.00;100396.84;6063539;28;20030;-64
2023/07/31 00:03:17;;;;;;;4.33;1.13;;;;;;;15.33;100.00;100387.34;6051854;28;20033;-65
2023/07/31 00:06:12;;;;;;;5.03;1.30;;;;;;;15.44;100.00;100396.75;6051922;28;20496;-64
2023/07/31 00:09:07;;;;;;;4.20;1.20;;;;;;;15.45;100.00;100393.06;6055385;28;20034;-64
2023/07/31 00:12:03;;;;;;;3.40;1.23;;;;;;;15.36;100.00;100370.13;6053038;28;20033;-65
2023/07/31 00:14:58;;;;;;;1.95;1.35;;;;;;;15.43;100.00;100371.91;6051167;28;20029;-65
2023/07/31 00:17:54;;;;;;;7.43;1.60;;;;;;;15.48;100.00;100360.66;6052230;28;20474;-65
2023/07/31 00:20:49;;;;;;;2.53;1.10;;;;;;;15.57;100.00;100385.47;6051895;28;20408;-64
2023/07/31 00:23:44;;;;;;;4.22;1.30;;;;;;;15.45;100.00;100380.56;6050840;28;20458;-64
2023/07/31 00:26:40;;;;;;;2.30;1.30;;;;;;;15.28;100.00;100351.53;6063688;28;20099;-64
2023/07/31 00:29:35;;;;;;;3.90;1.20;;;;;;;15.40;100.00;100372.25;6061060;28;20030;-64
2023/07/31 00:32:30;;;;;;;5.60;1.33;;;;;;;15.29;100.00;100359.38;6051728;28;20457;-64
2023/07/31 00:35:25;;;;;;;2.30;1.20;;;;;;;15.40;100.00;100342.88;6050820;28;20022;-63
2023/07/31 00:38:21;;;;;;;4.17;1.20;;;;;;;15.45;100.00;100351.16;6051508;28;20041;-64
2023/07/31 00:41:16;;;;;;;3.00;1.20;;;;;;;15.47;100.00;100357.16;6051140;28;20360;-64
2023/07/31 00:44:11;;;;;;;5.57;1.20;;;;;;;15.27;100.00;100344.53;6055645;28;20040;-64
2023/07/31 00:47:07;;;;;;;2.93;1.30;;;;;;;15.48;100.00;100360.66;6054292;28;20029;-64
2023/07/31 00:50:02;;;;;;;3.20;1.40;;;;;;;15.22;100.00;100339.72;6052554;28;20273;-63
2023/07/31 00:52:57;;;;;;;6.50;1.38;;;;;;;15.07;100.00;100340.75;6050802;28;20037;-63
2023/07/31 00:55:53;;;;;;;6.80;1.40;;;;;;;15.31;100.00;100343.97;6049283;28;20026;-63
2023/07/31 00:58:48;;;;;;;3.15;1.40;;;;;;;15.22;100.00;100336.25;6051556;28;20519;-63
2023/07/31 01:01:44;;;;;;;3.40;1.20;;;;;;;15.34;100.00;100338.25;6051848;28;20029;-63
2023/07/31 01:04:41;;;;;;;4.95;1.55;;;;;;;15.37;100.00;100334.38;6049620;28;20092;-63
2023/07/31 01:07:52;;;;;;;2.70;1.50;;;;;;;15.52;100.00;100337.09;6050729;28;20128;-63
2023/07/31 01:10:56;;;;;;;3.25;1.30;;;;;;;15.60;100.00;100307.56;6063100;28;20033;-64
2023/07/31 01:13:51;;;;;;;4.93;1.33;;;;;;;15.45;100.00;100327.09;6049034;28;20022;-62
2023/07/31 01:16:46;;;;;;;5.05;1.45;;;;;;;15.39;100.00;100317.16;6049549;28;20386;-63
2023/07/31 01:19:42;;;;;;;4.77;1.70;;;;;;;15.32;100.00;100310.91;6050497;28;20038;-62
2023/07/31 01:23:08;;;;;;;5.00;1.60;;;;;;;15.23;100.00;100304.00;6050695;28;20181;-64
2023/07/31 01:26:19;;;;;;;4.13;1.90;;;;;;;15.13;100.00;100289.28;6048402;28;20030;-62
2023/07/31 01:29:49;;;;;;;6.57;1.90;;;;;;;15.16;100.00;100300.44;6048678;28;20033;-63
2023/07/31 01:32:47;;;;;;;4.45;1.92;;;;;;;15.02;100.00;100277.22;6073225;28;20057;-62
2023/07/31 01:35:45;;;;;;;4.18;1.90;;;;;;;15.06;100.00;100285.66;6066215;28;20041;-63
2023/07/31 01:38:40;;;;;;;7.72;2.08;;;;;;;14.93;100.00;100251.63;6052139;28;20359;-63
2023/07/31 01:41:35;;;;;;;4.47;2.00;;;;;;;14.98;100.00;100265.25;6057491;28;20029;-63
2023/07/31 01:44:31;;;;;;;6.50;2.10;;;;;;;14.99;100.00;100272.25;6059421;28;20032;-63
2023/07/31 01:47:26;;;;;;;4.53;1.70;;;;;;;14.86;100.00;100235.53;6060705;28;20083;-63
2023/07/31 01:50:21;;;;;;;5.40;1.60;;;;;;;14.96;100.00;100259.28;6051964;28;20070;-63
2023/07/31 01:53:16;;;;;;;5.37;1.73;;;;;;;14.86;100.00;100238.19;6056956;28;20104;-63
2023/07/31 01:56:12;;;;;;;4.07;1.60;;;;;;;14.97;100.00;100247.59;6052129;28;20033;-63
2023/07/31 01:59:07;;;;;;;3.90;1.30;;;;;;;14.88;100.00;100235.34;6049664;28;20025;-63
2023/07/31 02:02:03;;;;;;;2.63;1.40;;;;;;;15.02;100.00;100245.19;6049922;28;20034;-63
2023/07/31 02:04:58;;;;;;;4.28;1.40;;;;;;;15.01;100.00;100242.69;6049093;28;20030;-63
2023/07/31 02:07:53;;;;;;;4.33;1.63;;;;;;;14.97;100.00;100252.91;6049697;28;20044;-63
2023/07/31 02:10:49;;;;;;;5.40;1.37;;;;;;;15.04;100.00;100248.47;6054586;28;20045;-63
2023/07/31 02:13:44;;;;;;;4.27;1.40;;;;;;;14.98;100.00;100243.03;6050025;28;20280;-63
2023/07/31 02:16:39;;;;;;;7.55;1.58;;;;;;;14.91;100.00;100245.66;6049827;28;20021;-63
2023/07/31 02:19:35;;;;;;;3.03;1.60;;;;;;;14.85;100.00;100227.69;6049846;28;20038;-63
2023/07/31 02:22:30;;;;;;;4.20;1.70;;;;;;;14.89;100.00;100234.34;6054176;28;20144;-63
2023/07/31 02:25:25;;;;;;;2.97;1.50;;;;;;;14.83;100.00;100224.38;6054636;28;20291;-63
2023/07/31 02:28:21;;;;;;;3.87;1.33;;;;;;;14.72;100.00;100214.19;6053816;28;20033;-63
2023/07/31 02:31:16;;;;;;;2.53;1.20;;;;;;;14.82;100.00;100234.22;6049714;28;20450;-63
2023/07/31 02:34:11;;;;;;;2.30;1.20;;;;;;;14.73;100.00;100211.31;6048835;28;20060;-63
2023/07/31 02:37:06;;;;;;;4.00;1.60;;;;;;;14.80;100.00;100220.25;6049229;28;20040;-63
2023/07/31 02:40:02;;;;;;;5.47;1.30;;;;;;;14.82;100.00;100220.06;6050560;28;20315;-63
2023/07/31 02:42:57;;;;;;;2.17;1.10;;;;;;;14.76;100.00;100215.44;6054775;28;20116;-63
2023/07/31 02:45:53;;;;;;;2.67;1.00;;;;;;;14.81;100.00;100215.75;6072591;28;20030;-64
2023/07/31 02:48:48;;;;;;;2.88;1.00;;;;;;;14.72;100.00;100192.81;6071902;28;20032;-63
2023/07/31 02:51:43;;;;;;;4.37;1.30;;;;;;;14.79;100.00;100218.59;6052119;28;20083;-64
2023/07/31 02:54:39;;;;;;;2.67;1.10;;;;;;;14.88;100.00;100217.47;6048548;28;20037;-63
2023/07/31 02:57:34;;;;;;;4.07;1.37;;;;;;;14.81;100.00;100207.75;6048940;28;20026;-63
2023/07/31 03:00:29;;;;;;;5.07;1.00;;;;;;;14.81;100.00;100208.53;6057646;28;20374;-64
2023/07/31 03:03:25;;;;;;;1.90;0.90;;;;;;;14.77;100.00;100203.75;6053576;28;20040;-64
2023/07/31 03:06:20;;;;;;;1.90;0.90;;;;;;;14.75;100.00;100208.47;6061256;28;20038;-64
2023/07/31 03:09:15;;;;;;;3.42;0.90;;;;;;;14.93;100.00;100214.25;6052347;28;20025;-64
2023/07/31 03:12:11;;;;;;;1.42;0.75;;;;;;;14.96;100.00;100213.88;6048888;28;20018;-64
2023/07/31 03:15:07;;;;;;;1.67;0.90;;;;;;;14.82;100.00;100198.69;6048498;28;20072;-64
2023/07/31 03:18:02;;;;;;;2.85;1.20;;;;;;;14.90;100.00;100211.94;6051348;28;20326;-64
2023/07/31 03:20:57;;;;;;;2.03;1.00;;;;;;;14.86;100.00;100218.69;6051559;28;20081;-63
2023/07/31 03:23:53;;;;;;;3.00;0.70;;;;;;;14.81;100.00;100213.06;6057064;28;20053;-64
2023/07/31 03:26:48;;;;;;;3.47;0.93;;;;;;;14.97;100.00;100220.03;6055661;28;20038;-64
2023/07/31 03:29:43;;;;;;;1.83;0.73;;;;;;;14.81;100.00;100202.41;6067033;28;20264;-63
2023/07/31 03:32:38;;;;;;;1.43;0.80;;;;;;;14.82;100.00;100202.19;6052851;28;20041;-64
2023/07/31 03:35:34;;;;;;;2.83;0.90;;;;;;;14.91;100.00;100216.28;6052396;28;20474;-64
2023/07/31 03:38:29;;;;;;;2.50;1.17;;;;;;;14.76;100.00;100197.59;6058298;28;20026;-64
2023/07/31 03:41:25;;;;;;;3.03;0.93;;;;;;;14.79;100.00;100215.06;6057251;28;20377;-64
2023/07/31 03:44:20;;;;;;;1.33;0.63;;;;;;;14.84;100.00;100208.16;6059318;28;20034;-63
2023/07/31 03:47:15;;;;;;;1.97;0.80;;;;;;;14.77;100.00;100206.44;6055114;28;20033;-64
2023/07/31 03:50:10;;;;;;;1.40;0.80;;;;;;;14.66;100.00;100210.41;6064281;28;20472;-64
2023/07/31 03:53:06;;;;;;;2.03;0.90;;;;;;;14.76;100.00;100218.13;6074564;28;20033;-64
2023/07/31 03:56:01;;;;;;;3.57;0.90;;;;;;;14.67;100.00;100209.41;6051193;28;20025;-64
2023/07/31 03:58:56;;;;;;;0.97;0.60;;;;;;;14.75;100.00;100213.81;6060646;28;20025;-64
2023/07/31 04:01:52;;;;;;;1.23;0.80;;;;;;;14.88;100.00;100227.31;6052307;28;20265;-64
2023/07/31 04:04:47;;;;;;;1.30;0.73;;;;;;;14.86;100.00;100208.00;6066762;28;20037;-64
2023/07/31 04:07:42;;;;;;;3.90;0.80;;;;;;;14.86;100.00;100224.03;5999677;28;20394;-64
2023/07/31 04:10:38;;;;;;;1.40;0.83;;;;;;;14.80;100.00;100216.75;6055307;28;20088;-63
2023/07/31 04:13:33;;;;;;;2.50;0.73;;;;;;;14.81;100.00;100215.75;6074776;28;20040;-63
2023/07/31 04:16:28;;;;;;;1.60;0.90;;;;;;;14.78;100.00;100221.44;6063373;28;20083;-63
2023/07/31 04:19:24;;;;;;;1.67;0.87;;;;;;;14.75;100.00;100222.66;6051810;28;20034;-64
2023/07/31 04:22:19;;;;;;;1.33;0.90;;;;;;;14.76;100.00;100221.63;6051871;28;20490;-64
2023/07/31 04:25:15;;;;;;;2.43;0.80;;;;;;;14.79;100.00;100223.09;6050656;28;20037;-63
2023/07/31 04:28:10;;;;;;;3.67;0.90;;;;;;;14.75;100.00;100197.78;6054078;28;20046;-64
2023/07/31 04:31:05;;;;;;;2.50;0.90;;;;;;;14.79;100.00;100205.22;6051378;28;20033;-64
2023/07/31 04:34:00;;;;;;;1.33;0.60;;;;;;;14.70;100.00;100205.53;6052022;28;20224;-64
2023/07/31 04:36:56;;;;;;;1.70;0.80;;;;;;;14.67;100.00;100197.88;6050784;28;20457;-63
2023/07/31 04:39:51;;;;;;;2.03;1.00;;;;;;;14.72;100.00;100200.84;6061569;28;20032;-63
2023/07/31 04:42:46;;;;;;;2.20;0.90;;;;;;;14.72;100.00;100200.84;6052555;28;20038;-63
2023/07/31 04:45:44;;;;;;;4.70;0.80;;;;;;;14.71;100.00;100205.34;6065058;28;20037;-63
2023/07/31 04:48:40;;;;;;;1.55;0.90;;;;;;;14.85;100.00;100203.66;6056225;28;20060;-64
2023/07/31 04:51:35;;;;;;;2.42;0.70;;;;;;;14.82;100.00;100206.69;6048099;28;20042;-64
2023/07/31 04:54:31;;;;;;;2.30;0.60;;;;;;;14.78;100.00;100200.09;6052563;28;20021;-63
2023/07/31 04:57:26;;;;;;;2.97;0.90;;;;;;;14.63;100.00;100186.75;6054765;28;20028;-64
2023/07/31 05:00:21;;;;;;;1.97;1.07;;;;;;;14.69;100.00;100198.53;6059087;28;20679;-64
2023/07/31 05:03:17;;;;;;;1.40;0.73;;;;;;;14.54;100.00;100184.38;6057455;28;20461;-64
2023/07/31 05:06:13;;;;;;;2.87;1.07;;;;;;;14.52;100.00;100183.72;6058438;28;20616;-64
2023/07/31 05:09:11;;;;;;;2.70;0.80;;;;;;;14.69;100.00;100195.84;6053790;28;20519;-64
2023/07/31 05:12:07;;;;;;;2.28;0.60;;;;;;;14.62;100.00;100195.75;6061866;28;20065;-64
2023/07/31 05:15:03;;;;;;;3.60;1.48;;;;;;;14.68;100.00;100200.38;6057484;28;20036;-64
2023/07/31 05:17:58;;;;;;;3.60;1.20;;;;;;;14.61;100.00;100178.09;6052328;28;20458;-64
2023/07/31 05:20:53;;;;;;;2.07;0.77;;;;;;;14.55;100.00;100184.19;6059439;28;20025;-64
2023/07/31 05:23:49;;;;;;;1.97;0.80;;;;;;;14.56;100.00;100185.84;6052051;28;20030;-64
2023/07/31 05:26:44;;;;;;;4.37;1.20;;;;;;;14.49;100.00;100166.22;6050605;28;20129;-64
2023/07/31 05:29:40;;;;;;;3.50;1.20;;;;;;;14.46;100.00;100173.78;6060415;28;20351;-63
2023/07/31 05:32:35;;;;;;;1.35;0.82;;;;;;;14.47;100.00;100162.09;6051602;28;20033;-66
2023/07/31 05:35:31;;;;;;;1.27;0.63;;;;;;;14.44;100.00;100165.13;6053090;28;20116;-65
2023/07/31 05:38:26;;;;;;;3.00;1.10;;;;;;;14.40;100.00;100163.84;6050682;28;20083;-64
2023/07/31 05:41:22;;;;;;;3.10;1.03;;;;;;;14.45;100.00;100166.78;6054831;28;20033;-66
2023/07/31 05:44:18;;;;;;;3.22;1.13;;;;;;;14.41;100.00;100165.50;6057981;28;20042;-64
2023/07/31 05:47:13;;;;;;;2.13;0.93;;;;;;;14.43;100.00;100160.81;6052075;28;20393;-64
2023/07/31 05:50:08;;;;;;;2.60;1.00;;;;;;;14.43;100.00;100153.63;6048537;28;20033;-64
2023/07/31 05:53:04;;;;;;;2.10;1.17;;;;;;;14.45;100.00;100156.13;6061412;28;20083;-64
2023/07/31 05:55:59;;;;;;;3.15;1.15;;;;;;;14.62;100.00;100168.28;6057422;28;20350;-65
2023/07/31 05:58:55;;;;;;;4.35;1.10;;;;;;;14.57;100.00;100154.63;6049638;28;20480;-64
2023/07/31 06:01:50;;;;;;;3.40;0.90;;;;;;;14.64;100.00;100150.22;6048075;28;20018;-64
2023/07/31 06:04:45;;;;;;;3.22;1.30;;;;;;;14.67;100.00;100155.19;6052089;28;20092;-64
2023/07/31 06:07:41;;;;;;;2.60;1.00;;;;;;;14.79;100.00;100137.66;6061164;28;20040;-65
2023/07/31 06:10:36;;;;;;;4.60;1.67;;;;;;;14.92;100.00;100142.34;6061944;28;20460;-65
2023/07/31 06:13:31;;;;;;;4.63;1.33;;;;;;;14.88;100.00;100120.53;6052948;28;20276;-65
2023/07/31 06:16:27;;;;;;;5.70;2.10;;;;;;;15.24;100.00;100153.41;6057939;28;20025;-65
2023/07/31 06:19:22;;;;;;;7.00;2.83;;;;;;;15.22;100.00;100154.59;6053059;28;20026;-64
2023/07/31 06:22:17;;;;;;;6.23;2.20;;;;;;;15.09;100.00;100133.91;6056101;28;20369;-65
2023/07/31 06:25:13;;;;;;;5.88;3.08;;;;;;;15.31;100.00;100156.13;6051870;28;20283;-65
2023/07/31 06:28:08;;;;;;;6.57;3.22;;;;;;;15.35;100.00;100152.91;6053001;28;20025;-64
2023/07/31 06:31:03;;;;;;;11.50;3.87;;;;;;;15.17;100.00;100130.28;6056490;28;20044;-65
2023/07/31 06:33:59;;;;;;;9.60;3.93;;;;;;;15.33;100.00;100135.38;6050581;28;20029;-65
2023/07/31 06:36:56;;;;;;;9.43;3.73;;;;;;;15.40;100.00;100139.78;6054818;28;20076;-65
2023/07/31 06:39:51;;;;;;;11.52;4.50;;;;;;;15.47;100.00;100118.50;6054917;28;20026;-65
2023/07/31 06:42:46;;;;;;;8.50;3.17;;;;;;;15.56;100.00;100133.38;6049228;28;20037;-65
2023/07/31 06:45:41;;;;;;;9.33;3.70;;;;;;;15.66;100.00;100133.88;6058949;28;20049;-64
2023/07/31 06:48:39;;;;;;;8.03;3.73;;;;;;;15.54;100.00;100121.22;6056871;28;20395;-64
2023/07/31 06:51:35;;;;;;;8.10;3.25;;;;;;;15.48;100.00;100128.16;6057440;28;20377;-65
2023/07/31 06:54:31;;;;;;;8.00;3.47;;;;;;;15.60;100.00;100152.53;6051362;28;20038;-64
2023/07/31 06:57:26;;;;;;;8.43;3.77;;;;;;;15.48;100.00;100137.03;6051219;28;20027;-64
2023/07/31 07:00:22;;;;;;;10.27;4.27;;;;;;;15.53;100.00;100140.94;6036591;28;20350;-64
2023/07/31 07:03:18;;;;;;;10.32;3.55;;;;;;;15.42;100.00;100147.59;6056975;28;20095;-64
2023/07/31 07:06:13;;;;;;;11.60;4.43;;;;;;;15.29;100.00;100142.97;6052682;28;20117;-64
2023/07/31 07:09:09;;;;;;;9.73;4.20;;;;;;;15.21;100.00;100132.41;6064541;28;20024;-64
2023/07/31 07:12:04;;;;;;;13.03;4.87;;;;;;;15.27;100.00;100142.31;6057052;28;20473;-64
2023/07/31 07:15:00;;;;;;;15.18;5.35;;;;;;;15.27;100.00;100144.19;6059750;28;20278;-64
2023/07/31 07:17:56;;;;;;;14.88;5.20;;;;;;;15.22;100.00;100139.38;6052742;28;20033;-64
2023/07/31 07:20:52;;;;;;;14.02;6.07;;;;;;;15.11;100.00;100129.19;6057714;28;20054;-64
2023/07/31 07:23:47;;;;;;;13.88;5.40;;;;;;;15.21;100.00;100145.75;6052934;28;20030;-64
2023/07/31 07:26:43;;;;;;;13.87;6.50;;;;;;;15.19;100.00;100137.09;6055386;28;20536;-64
2023/07/31 07:29:38;;;;;;;15.10;6.00;;;;;;;15.18;100.00;100140.78;6052983;28;20272;-64
2023/07/31 07:32:33;;;;;;;17.90;6.70;;;;;;;15.17;100.00;100136.47;6063217;28;20377;-64
2023/07/31 07:35:29;;;;;;;19.93;7.40;;;;;;;15.22;100.00;100141.25;6054538;28;20373;-64
2023/07/31 07:38:24;;;;;;;15.63;6.35;;;;;;;15.14;100.00;100120.81;6053280;28;20331;-65
2023/07/31 07:41:19;;;;;;;17.47;6.40;;;;;;;15.31;100.00;100137.41;6068398;28;20040;-64
2023/07/31 07:44:15;;;;;;;15.13;6.70;;;;;;;15.21;100.00;100136.91;6063408;28;20109;-65
2023/07/31 07:47:10;;;;;;;21.97;7.07;;;;;;;15.20;100.00;100125.41;6054172;28;20279;-65
2023/07/31 07:50:06;;;;;;;16.40;6.27;;;;;;;15.48;100.00;100147.72;6052395;28;20366;-64
2023/07/31 07:53:01;;;;;;;17.38;7.22;;;;;;;15.55;100.00;100144.25;6060879;28;20035;-65
2023/07/31 07:55:56;;;;;;;14.47;6.30;;;;;;;15.59;100.00;100133.00;6056848;28;20614;-64
2023/07/31 07:58:52;;;;;;;13.40;6.73;;;;;;;15.80;100.00;100132.97;6052622;28;20042;-64
2023/07/31 08:01:47;;;;;;;15.07;6.72;;;;;;;15.99;100.00;100131.44;6056814;28;20018;-64
2023/07/31 08:04:42;;;;;;;14.17;6.37;;;;;;;16.11;100.00;100113.84;6054883;28;20042;-64
2023/07/31 08:07:38;;;;;;;15.43;6.53;;;;;;;16.20;100.00;100131.38;6056594;28;20022;-64
2023/07/31 08:10:33;;;;;;;13.33;6.33;;;;;;;16.07;100.00;100123.28;6067978;28;20048;-64
2023/07/31 08:13:29;;;;;;;10.97;5.20;;;;;;;16.03;100.00;100127.38;6061448;28;20064;-64
2023/07/31 08:16:24;;;;;;;11.50;5.75;;;;;;;16.23;100.00;100132.84;6052678;28;20265;-64
2023/07/31 08:19:19;;;;;;;12.37;4.83;;;;;;;16.25;100.00;100123.59;6052700;28;20112;-64
2023/07/31 08:22:14;;;;;;;12.47;5.10;;;;;;;16.39;100.00;100122.63;6051595;28;20041;-64
2023/07/31 08:25:10;;;;;;;10.23;4.70;;;;;;;16.66;100.00;100119.09;6051030;28;20029;-64
2023/07/31 08:28:06;;;;;;;10.20;4.27;;;;;;;16.79;100.00;100125.53;6052199;28;20045;-63
2023/07/31 08:31:01;;;;;;;9.65;4.50;;;;;;;16.67;100.00;100125.28;6053856;28;20293;-64
2023/07/31 08:33:56;;;;;;;10.43;4.27;;;;;;;16.74;100.00;100133.34;6051068;28;20041;-64
2023/07/31 08:36:52;;;;;;;9.90;4.13;;;;;;;16.74;100.00;100152.09;6055266;28;20537;-64
2023/07/31 08:39:47;;;;;;;9.20;4.40;;;;;;;16.64;100.00;100139.91;6067804;28;20037;-64
2023/07/31 08:42:45;;;;;;;11.33;4.70;;;;;;;16.74;100.00;100152.09;6061397;28;20050;-64
2023/07/31 08:45:41;;;;;;;13.88;5.80;;;;;;;16.60;100.00;100140.50;6062678;28;20041;-65
2023/07/31 08:48:38;;;;;;;9.38;4.20;;;;;;;16.59;100.00;100137.00;6059682;28;20511;-65
2023/07/31 08:51:36;;;;;;;9.35;3.97;;;;;;;16.61;100.00;100142.13;6044660;28;20173;-65
2023/07/31 08:54:33;;;;;;;12.75;3.58;;;;;;;16.90;100.00;100135.69;6046358;28;20033;-64
2023/07/31 08:57:28;;;;;;;9.80;4.22;;;;;;;17.03;100.00;100130.34;6048415;28;20042;-64
2023/07/31 09:00:25;;;;;;;11.98;4.03;;;;;;;16.90;100.00;100124.97;6051412;28;20044;-65
2023/07/31 09:03:21;;;;;;;8.60;3.65;;;;;;;16.78;100.00;100118.53;6048542;28;20109;-65
2023/07/31 09:06:18;;;;;;;12.20;4.40;;;;;;;16.66;100.00;100120.94;6052101;28;20401;-65
2023/07/31 09:09:15;;;;;;;8.77;3.70;;;;;;;16.56;100.00;100124.00;6046808;28;20068;-65
2023/07/31 09:12:10;;;;;;;11.05;3.97;;;;;;;16.44;100.00;100116.72;6047095;28;20037;-65
2023/07/31 09:15:06;;;;;;;13.53;4.73;;;;;;;16.52;100.00;100122.69;6048034;28;20096;-64
2023/07/31 09:18:02;;;;;;;10.77;3.78;;;;;;;16.47;100.00;100116.31;6053673;28;20489;-65
2023/07/31 09:21:04;;;;;;;10.00;3.58;;;;;;;16.59;100.00;100093.31;6053069;28;20040;-65
2023/07/31 09:23:59;;;;;;;11.80;4.03;;;;;;;16.79;100.00;100096.91;6058901;28;20481;-65
2023/07/31 09:26:56;;;;;;;9.80;3.70;;;;;;;16.67;100.00;100096.66;6054354;28;20046;-65
2023/07/31 09:30:00;;;;;;;8.30;3.55;;;;;;;16.61;100.00;100097.44;6055627;28;20037;-65
2023/07/31 09:33:04;;;;;;;11.18;4.20;;;;;;;16.59;100.00;100107.53;6045670;28;20477;-65
2023/07/31 09:36:00;;;;;;;13.98;4.15;;;;;;;16.50;100.00;100098.00;6053421;28;20040;-65
2023/07/31 09:38:56;;;;;;;8.63;3.42;;;;;;;16.47;100.00;100103.72;6056833;28;20040;-65
2023/07/31 09:41:55;;;;;;;7.63;2.95;;;;;;;16.35;100.00;100100.00;6058534;28;20473;-64
2023/07/31 09:44:50;;;;;;;7.50;3.50;;;;;;;16.40;100.00;100086.84;6058209;28;20033;-65
2023/07/31 09:47:48;;;;;;;8.27;3.37;;;;;;;16.60;100.00;100095.78;6059404;28;20504;-65
2023/07/31 09:50:46;;;;;;;6.68;2.42;;;;;;;16.79;100.00;100082.69;6062058;28;20053;-65
2023/07/31 09:53:50;;;;;;;5.50;2.40;;;;;;;16.84;100.00;100074.88;6049938;28;20113;-66
2023/07/31 09:56:46;;;;;;;4.80;2.30;;;;;;;16.83;100.00;100081.25;6056061;28;20033;-65
2023/07/31 09:59:42;;;;;;;6.35;2.38;;;;;;;17.03;100.00;100087.50;6050960;28;20088;-65
2023/07/31 10:02:38;;;;;;;4.60;2.00;;;;;;;17.07;100.00;100083.34;6049090;28;20029;-65
2023/07/31 10:05:49;;;;;;;5.95;2.20;;;;;;;17.06;100.00;100071.00;6066032;28;20323;-65
2023/07/31 10:08:46;;;;;;;6.32;2.15;;;;;;;17.05;100.00;100082.75;6048055;28;20064;-65
2023/07/31 10:11:50;;;;;;;4.70;1.90;;;;;;;16.99;100.00;100080.88;6050320;28;20133;-65
2023/07/31 10:14:45;;;;;;;5.30;1.95;;;;;;;17.01;100.00;100078.84;6051658;28;20033;-65
2023/07/31 10:17:41;;;;;;;4.03;1.83;;;;;;;16.95;100.00;100060.88;6053878;28;20808;-65
2023/07/31 10:20:37;;;;;;;5.13;1.92;;;;;;;17.11;100.00;100068.53;6048037;28;20030;-65
2023/07/31 10:23:32;;;;;;;4.10;2.25;;;;;;;17.19;100.00;100076.38;6050770;28;20038;-65
2023/07/31 10:26:28;;;;;;;3.72;1.83;;;;;;;17.37;100.00;100073.91;6047841;28;20108;-66
2023/07/31 10:29:24;;;;;;;4.25;1.67;;;;;;;17.58;100.00;100060.34;6045612;28;20026;-65
2023/07/31 10:32:20;;;;;;;4.90;2.83;;;;;;;17.85;100.00;100072.69;6051782;28;20041;-65
2023/07/31 10:35:16;;;;;;;3.92;2.05;;;;;;;17.92;100.00;100066.50;6052458;28;20022;-65
2023/07/31 10:38:12;;;;;;;3.33;2.13;;;;;;;18.08;100.00;100060.66;6051434;28;20079;-65
2023/07/31 10:41:08;;;;;;;4.03;1.95;;;;;;;18.19;100.00;100057.34;6054789;28;20037;-65
2023/07/31 10:44:07;;;;;;;7.20;1.83;;;;;;;18.20;100.00;100032.16;6050655;28;20445;-65
2023/07/31 10:47:02;;;;;;;4.65;1.80;;;;;;;18.15;100.00;100040.03;6062849;28;20052;-65
2023/07/31 10:50:37;;;;;;;5.03;1.80;;;;;;;18.43;100.00;100044.03;6059595;28;20466;-64
2023/07/31 10:53:32;;;;;;;5.57;1.73;;;;;;;18.94;100.00;100041.31;6045147;28;20042;-65
2023/07/31 10:56:37;;;;;;;4.30;1.87;;;;;;;19.18;100.00;100025.44;6058354;28;20033;-65
2023/07/31 10:59:34;;;;;;;3.47;1.70;;;;;;;19.71;100.00;100042.78;6061524;28;20044;-65
2023/07/31 11:02:33;;;;;;;3.17;1.80;;;;;;;19.53;96.90;100029.31;6051243;28;20032;-65
2023/07/31 11:05:49;;;;;;;3.10;1.73;;;;;;;19.20;99.34;100034.94;6050160;28;20025;-65
2023/07/31 11:08:48;;;;;;;4.00;1.80;;;;;;;19.03;100.00;100023.88;6060580;28;20034;-65
2023/07/31 11:11:44;;;;;;;4.28;1.88;;;;;;;19.23;100.00;100029.13;6045990;28;20030;-65
2023/07/31 11:14:39;;;;;;;4.68;1.80;;;;;;;19.44;99.86;100025.25;6060782;28;20112;-64
2023/07/31 11:17:38;;;;;;;4.00;1.73;;;;;;;19.58;100.00;100016.00;6058425;28;20038;-64
2023/07/31 11:20:35;;;;;;;6.88;1.85;;;;;;;19.85;99.76;100003.94;6055799;28;20038;-65
2023/07/31 11:23:31;;;;;;;6.03;1.83;;;;;;;20.16;95.81;100019.94;6056310;28;20029;-65
2023/07/31 11:26:27;;;;;;;4.43;1.77;;;;;;;20.09;94.38;100013.81;6053099;28;20075;-65
2023/07/31 11:29:27;;;;;;;4.72;1.70;;;;;;;19.81;93.55;100000.03;6065216;28;20032;-65
2023/07/31 11:32:22;;;;;;;;;;;;;;;19.74;95.55;100007.38;6055131;28;20025;-65
2023/07/31 11:35:17;;;;;;;5.27;1.90;;;;;;;19.42;97.20;99995.06;6051300;28;19905;-65
2023/07/31 11:38:23;;;;;;;4.57;1.83;;;;;;;19.32;98.54;99992.81;6052845;28;20378;-65
2023/07/31 11:41:18;;;;;;;5.53;1.80;;;;;;;19.32;98.67;99984.75;6053308;28;20417;-65
2023/07/31 11:44:14;;;;;;;4.57;1.60;;;;;;;19.12;96.39;99983.28;6052311;28;20060;-65
2023/07/31 11:47:09;;;;;;;3.20;1.20;;;;;;;19.07;97.34;99989.34;6056988;28;20419;-65
2023/07/31 11:50:06;;;;;;;6.27;1.90;;;;;;;19.05;96.51;100002.19;6055311;28;20273;-65
2023/07/31 11:53:07;;;;;;;6.75;1.90;;;;;;;19.10;95.66;99996.13;6052795;28;20092;-65
2023/07/31 11:56:04;;;;;;;3.10;1.48;;;;;;;19.14;96.50;99992.78;6052234;28;20022;-65
2023/07/31 11:59:02;;;;;;;3.75;1.80;;;;;;;19.24;97.16;99976.19;6066832;28;20033;-65
2023/07/31 12:01:57;;;;;;;4.00;1.60;;;;;;;18.94;100.00;99992.13;6061314;28;20408;-64
2023/07/31 12:04:52;;;;;;;5.35;1.65;;;;;;;18.46;100.00;99991.75;6059199;28;20076;-65
2023/07/31 12:07:52;;;;;;;5.13;1.87;;;;;;;18.29;100.00;99985.25;6052147;28;20058;-65
2023/07/31 12:10:50;;;;;;;3.00;1.45;;;;;;;18.10;100.00;99964.69;6052640;28;20075;-65
2023/07/31 12:13:45;;;;;;;3.63;1.65;;;;;;;18.34;100.00;99988.13;6051531;28;20034;-65
2023/07/31 12:16:40;;;;;;;2.83;1.47;;;;;;;18.65;100.00;99977.44;6052331;28;20088;-64
2023/07/31 12:19:37;;;;;;;5.07;1.70;;;;;;;19.12;100.00;99959.09;6051226;28;20044;-65
2023/07/31 12:22:33;;;;;;;4.18;1.58;;;;;;;19.38;100.00;99957.03;6059009;28;20500;-65
2023/07/31 12:25:29;;;;;;;3.23;1.50;;;;;;;19.35;98.62;99972.78;6068966;28;20030;-65
2023/07/31 12:28:25;;;;;;;5.85;1.40;;;;;;;19.24;98.12;99949.28;6051873;28;20061;-65
2023/07/31 12:31:22;;;;;;;2.83;1.30;;;;;;;19.14;98.31;99954.31;6052235;28;20030;-65
2023/07/31 12:34:18;;;;;;;4.95;1.45;;;;;;;19.08;100.00;99961.41;6051368;28;20026;-65
2023/07/31 12:37:13;;;;;;;2.53;1.17;;;;;;;19.24;99.90;99958.16;6059003;28;20492;-65
2023/07/31 12:40:09;;;;;;;2.87;1.40;;;;;;;19.31;99.02;99963.47;6058232;28;20030;-65
2023/07/31 12:43:05;;;;;;;3.42;1.20;;;;;;;19.38;97.90;99959.72;6054136;28;20030;-65
2023/07/31 12:46:01;;;;;;;2.50;1.10;;;;;;;19.35;96.89;99967.41;6052783;28;20453;-65
2023/07/31 12:48:56;;;;;;;2.27;1.10;;;;;;;19.49;97.72;99964.38;6063072;28;20041;-65
2023/07/31 12:51:53;;;;;;;3.60;1.73;;;;;;;19.60;97.24;99954.75;6052578;28;20041;-65
2023/07/31 12:54:49;;;;;;;2.83;1.48;;;;;;;19.53;98.40;99959.38;6057193;28;20448;-65
2023/07/31 12:57:44;;;;;;;4.53;1.40;;;;;;;19.35;97.90;99951.25;6051011;28;20038;-65
2023/07/31 13:00:39;;;;;;;5.18;1.00;;;;;;;19.24;98.19;99943.91;6057078;28;20025;-65
2023/07/31 13:03:35;;;;;;;4.53;1.43;;;;;;;19.25;99.78;99937.47;6059477;28;20044;-65
2023/07/31 13:06:30;;;;;;;3.60;1.10;;;;;;;19.10;99.46;99947.75;6064787;28;20061;-65
2023/07/31 13:09:25;;;;;;;2.23;1.03;;;;;;;19.01;100.00;99934.59;6051263;28;20268;-65
2023/07/31 13:12:21;;;;;;;2.67;1.10;;;;;;;18.77;100.00;99932.72;6050893;28;20057;-65
2023/07/31 13:15:16;;;;;;;3.30;1.17;;;;;;;18.80;100.00;99936.84;6052524;28;20493;-65
2023/07/31 13:18:11;;;;;;;2.10;0.95;;;;;;;18.99;100.00;99936.69;6051966;28;20026;-65
2023/07/31 13:21:14;;;;;;;2.92;1.10;;;;;;;19.15;100.00;99950.59;6143102;27;20376;-64
2023/07/31 13:24:09;;;;;;;4.03;1.00;;;;;;;19.36;100.00;99947.50;6140070;28;20032;-64
2023/07/31 13:27:05;;;;;;;1.50;0.70;;;;;;;19.43;99.45;99932.97;6141620;28;20372;-64
2023/07/31 13:30:00;;;;;;;2.03;0.90;;;;;;;19.53;98.09;99929.78;6142379;28;20082;-64
2023/07/31 13:32:55;;;;;;;1.33;0.80;;;;;;;19.49;98.59;99937.47;6141958;28;20266;-64